sensor_id;sensor_type;location;lat;lon;timestamp;temperature;humidity
47338;DHT22;33069;51.970;5.892;2023-07-22T00:02:04;15.20;74.30
47338;DHT22;33069;51.970;5.892;2023-07-22T00:04:50;15.20;74.70
47338;DHT22;33069;51.970;5.892;2023-07-22T00:07:38;15.20;74.50
47338;DHT22;33069;51.970;5.892;2023-07-22T00:10:25;15.30;74.60
47338;DHT22;33069;51.970;5.892;2023-07-22T00:13:11;15.10;75.50
47338;DHT22;33069;51.970;5.892;2023-07-22T00:15:58;15.00;75.80
47338;DHT22;33069;51.970;5.892;2023-07-22T00:18:45;15.00;76.20
47338;DHT22;33069;51.970;5.892;2023-07-22T00:21:31;15.10;76.40
47338;DHT22;33069;51.970;5.892;2023-07-22T00:24:16;15.30;76.20
47338;DHT22;33069;51.970;5.892;2023-07-22T00:27:02;15.40;76.00
47338;DHT22;33069;51.970;5.892;2023-07-22T00:29:48;15.30;75.70
47338;DHT22;33069;51.970;5.892;2023-07-22T00:32:35;15.20;76.50
47338;DHT22;33069;51.970;5.892;2023-07-22T00:35:24;15.20;76.40
47338;DHT22;33069;51.970;5.892;2023-07-22T00:38:09;15.00;76.80
47338;DHT22;33069;51.970;5.892;2023-07-22T00:40:56;14.90;77.60
47338;DHT22;33069;51.970;5.892;2023-07-22T00:43:42;14.90;77.50
47338;DHT22;33069;51.970;5.892;2023-07-22T00:46:28;14.80;77.50
47338;DHT22;33069;51.970;5.892;2023-07-22T00:49:15;14.80;78.10
47338;DHT22;33069;51.970;5.892;2023-07-22T00:52:02;14.80;78.90
47338;DHT22;33069;51.970;5.892;2023-07-22T00:54:48;14.80;78.90
47338;DHT22;33069;51.970;5.892;2023-07-22T00:57:36;14.80;79.20
47338;DHT22;33069;51.970;5.892;2023-07-22T01:00:23;14.80;79.20
47338;DHT22;33069;51.970;5.892;2023-07-22T01:03:09;14.70;79.60
47338;DHT22;33069;51.970;5.892;2023-07-22T01:05:56;14.60;80.00
47338;DHT22;33069;51.970;5.892;2023-07-22T01:08:44;14.50;80.40
47338;DHT22;33069;51.970;5.892;2023-07-22T01:11:30;14.40;80.50
47338;DHT22;33069;51.970;5.892;2023-07-22T01:14:16;14.40;80.90
47338;DHT22;33069;51.970;5.892;2023-07-22T01:17:03;14.50;80.90
47338;DHT22;33069;51.970;5.892;2023-07-22T01:19:50;14.60;80.20
47338;DHT22;33069;51.970;5.892;2023-07-22T01:22:37;14.60;79.70
47338;DHT22;33069;51.970;5.892;2023-07-22T01:25:24;14.40;80.60
47338;DHT22;33069;51.970;5.892;2023-07-22T01:28:10;14.50;80.80
47338;DHT22;33069;51.970;5.892;2023-07-22T01:30:59;14.60;80.60
47338;DHT22;33069;51.970;5.892;2023-07-22T01:33:45;14.70;80.10
47338;DHT22;33069;51.970;5.892;2023-07-22T01:36:31;14.60;80.40
47338;DHT22;33069;51.970;5.892;2023-07-22T01:39:17;14.60;80.50
47338;DHT22;33069;51.970;5.892;2023-07-22T01:42:07;14.60;80.70
47338;DHT22;33069;51.970;5.892;2023-07-22T01:44:53;14.50;81.00
47338;DHT22;33069;51.970;5.892;2023-07-22T01:47:40;14.50;81.20
47338;DHT22;33069;51.970;5.892;2023-07-22T01:50:26;14.50;81.30
47338;DHT22;33069;51.970;5.892;2023-07-22T01:53:12;14.50;81.30
47338;DHT22;33069;51.970;5.892;2023-07-22T01:55:58;14.40;81.50
47338;DHT22;33069;51.970;5.892;2023-07-22T01:58:44;14.50;81.40
47338;DHT22;33069;51.970;5.892;2023-07-22T02:01:30;14.50;81.70
47338;DHT22;33069;51.970;5.892;2023-07-22T02:04:16;14.70;81.40
47338;DHT22;33069;51.970;5.892;2023-07-22T02:07:02;14.80;80.70
47338;DHT22;33069;51.970;5.892;2023-07-22T02:09:48;14.70;80.90
47338;DHT22;33069;51.970;5.892;2023-07-22T02:12:37;14.70;81.20
47338;DHT22;33069;51.970;5.892;2023-07-22T02:15:23;14.70;81.10
47338;DHT22;33069;51.970;5.892;2023-07-22T02:18:10;14.70;81.30
47338;DHT22;33069;51.970;5.892;2023-07-22T02:20:56;14.80;81.10
47338;DHT22;33069;51.970;5.892;2023-07-22T02:23:42;14.80;80.50
47338;DHT22;33069;51.970;5.892;2023-07-22T02:26:28;14.80;80.60
47338;DHT22;33069;51.970;5.892;2023-07-22T02:29:14;14.70;80.90
47338;DHT22;33069;51.970;5.892;2023-07-22T02:32:00;14.50;81.30
47338;DHT22;33069;51.970;5.892;2023-07-22T02:34:47;14.60;81.10
47338;DHT22;33069;51.970;5.892;2023-07-22T02:37:34;14.70;81.00
47338;DHT22;33069;51.970;5.892;2023-07-22T02:40:20;14.50;81.30
47338;DHT22;33069;51.970;5.892;2023-07-22T02:43:06;14.50;81.80
47338;DHT22;33069;51.970;5.892;2023-07-22T02:45:53;14.30;82.30
47338;DHT22;33069;51.970;5.892;2023-07-22T02:48:39;14.30;82.70
47338;DHT22;33069;51.970;5.892;2023-07-22T02:51:26;14.30;82.90
47338;DHT22;33069;51.970;5.892;2023-07-22T02:54:12;14.40;82.70
47338;DHT22;33069;51.970;5.892;2023-07-22T02:56:59;14.30;82.70
47338;DHT22;33069;51.970;5.892;2023-07-22T02:59:46;14.30;82.70
47338;DHT22;33069;51.970;5.892;2023-07-22T03:02:32;14.30;82.50
47338;DHT22;33069;51.970;5.892;2023-07-22T03:05:18;14.20;82.30
47338;DHT22;33069;51.970;5.892;2023-07-22T03:08:04;14.10;82.70
47338;DHT22;33069;51.970;5.892;2023-07-22T03:10:50;14.10;83.40
47338;DHT22;33069;51.970;5.892;2023-07-22T03:13:36;14.00;83.40
47338;DHT22;33069;51.970;5.892;2023-07-22T03:16:22;14.00;83.70
47338;DHT22;33069;51.970;5.892;2023-07-22T03:19:09;14.10;83.80
47338;DHT22;33069;51.970;5.892;2023-07-22T03:21:56;14.20;83.50
47338;DHT22;33069;51.970;5.892;2023-07-22T03:24:42;14.10;83.10
47338;DHT22;33069;51.970;5.892;2023-07-22T03:27:28;14.00;83.00
47338;DHT22;33069;51.970;5.892;2023-07-22T03:30:16;13.90;83.40
47338;DHT22;33069;51.970;5.892;2023-07-22T03:33:02;14.00;83.80
47338;DHT22;33069;51.970;5.892;2023-07-22T03:35:48;14.00;83.90
47338;DHT22;33069;51.970;5.892;2023-07-22T03:38:34;13.90;83.90
47338;DHT22;33069;51.970;5.892;2023-07-22T03:41:20;13.80;84.00
47338;DHT22;33069;51.970;5.892;2023-07-22T03:44:06;13.90;84.10
47338;DHT22;33069;51.970;5.892;2023-07-22T03:46:52;13.90;84.10
47338;DHT22;33069;51.970;5.892;2023-07-22T03:49:39;14.00;84.00
47338;DHT22;33069;51.970;5.892;2023-07-22T03:52:25;14.00;84.00
47338;DHT22;33069;51.970;5.892;2023-07-22T03:55:11;14.10;84.00
47338;DHT22;33069;51.970;5.892;2023-07-22T03:57:57;14.10;83.80
47338;DHT22;33069;51.970;5.892;2023-07-22T04:00:43;14.10;83.50
47338;DHT22;33069;51.970;5.892;2023-07-22T04:03:29;14.10;83.50
47338;DHT22;33069;51.970;5.892;2023-07-22T04:06:15;14.10;83.30
47338;DHT22;33069;51.970;5.892;2023-07-22T04:09:00;14.10;83.20
47338;DHT22;33069;51.970;5.892;2023-07-22T04:11:46;14.10;83.20
47338;DHT22;33069;51.970;5.892;2023-07-22T04:14:32;14.10;83.10
47338;DHT22;33069;51.970;5.892;2023-07-22T04:17:18;14.10;83.00
47338;DHT22;33069;51.970;5.892;2023-07-22T04:20:05;14.10;83.20
47338;DHT22;33069;51.970;5.892;2023-07-22T04:22:53;14.10;83.30
47338;DHT22;33069;51.970;5.892;2023-07-22T04:25:43;14.00;83.50
47338;DHT22;33069;51.970;5.892;2023-07-22T04:28:29;14.10;83.70
47338;DHT22;33069;51.970;5.892;2023-07-22T04:31:15;14.20;83.60
47338;DHT22;33069;51.970;5.892;2023-07-22T04:34:01;14.10;83.50
47338;DHT22;33069;51.970;5.892;2023-07-22T04:36:47;14.10;83.50
47338;DHT22;33069;51.970;5.892;2023-07-22T04:39:33;14.20;83.60
47338;DHT22;33069;51.970;5.892;2023-07-22T04:42:20;14.20;83.60
47338;DHT22;33069;51.970;5.892;2023-07-22T04:45:07;14.20;83.60
47338;DHT22;33069;51.970;5.892;2023-07-22T04:47:53;14.20;83.80
47338;DHT22;33069;51.970;5.892;2023-07-22T04:50:39;14.20;83.80
47338;DHT22;33069;51.970;5.892;2023-07-22T04:53:26;14.30;83.50
47338;DHT22;33069;51.970;5.892;2023-07-22T04:56:12;14.40;83.10
47338;DHT22;33069;51.970;5.892;2023-07-22T04:58:58;14.50;82.80
47338;DHT22;33069;51.970;5.892;2023-07-22T05:01:44;14.50;82.50
47338;DHT22;33069;51.970;5.892;2023-07-22T05:04:30;14.50;82.60
47338;DHT22;33069;51.970;5.892;2023-07-22T05:07:16;14.50;82.40
47338;DHT22;33069;51.970;5.892;2023-07-22T05:10:02;14.60;82.40
47338;DHT22;33069;51.970;5.892;2023-07-22T05:12:48;14.70;82.20
47338;DHT22;33069;51.970;5.892;2023-07-22T05:15:34;14.60;82.30
47338;DHT22;33069;51.970;5.892;2023-07-22T05:18:20;14.70;82.30
47338;DHT22;33069;51.970;5.892;2023-07-22T05:21:06;14.60;82.00
47338;DHT22;33069;51.970;5.892;2023-07-22T05:23:52;14.70;82.30
47338;DHT22;33069;51.970;5.892;2023-07-22T05:26:38;14.70;82.10
47338;DHT22;33069;51.970;5.892;2023-07-22T05:29:24;14.70;81.90
47338;DHT22;33069;51.970;5.892;2023-07-22T05:32:10;14.70;81.90
47338;DHT22;33069;51.970;5.892;2023-07-22T05:34:56;14.80;81.60
47338;DHT22;33069;51.970;5.892;2023-07-22T05:37:42;14.90;81.30
47338;DHT22;33069;51.970;5.892;2023-07-22T05:40:28;15.10;81.00
47338;DHT22;33069;51.970;5.892;2023-07-22T05:43:14;15.10;80.70
47338;DHT22;33069;51.970;5.892;2023-07-22T05:46:00;15.20;80.70
47338;DHT22;33069;51.970;5.892;2023-07-22T05:48:46;15.40;80.20
47338;DHT22;33069;51.970;5.892;2023-07-22T05:51:32;15.40;79.70
47338;DHT22;33069;51.970;5.892;2023-07-22T05:54:18;15.40;79.50
47338;DHT22;33069;51.970;5.892;2023-07-22T05:57:05;15.40;79.40
47338;DHT22;33069;51.970;5.892;2023-07-22T05:59:51;15.50;79.50
47338;DHT22;33069;51.970;5.892;2023-07-22T06:02:37;15.40;79.70
47338;DHT22;33069;51.970;5.892;2023-07-22T06:05:23;15.60;79.10
47338;DHT22;33069;51.970;5.892;2023-07-22T06:08:09;15.50;79.20
47338;DHT22;33069;51.970;5.892;2023-07-22T06:10:56;15.80;78.80
47338;DHT22;33069;51.970;5.892;2023-07-22T06:13:42;16.00;78.60
47338;DHT22;33069;51.970;5.892;2023-07-22T06:16:28;16.00;78.30
47338;DHT22;33069;51.970;5.892;2023-07-22T06:19:14;16.00;77.80
47338;DHT22;33069;51.970;5.892;2023-07-22T06:22:00;16.30;77.60
47338;DHT22;33069;51.970;5.892;2023-07-22T06:24:46;16.10;77.80
47338;DHT22;33069;51.970;5.892;2023-07-22T06:27:32;16.30;77.30
47338;DHT22;33069;51.970;5.892;2023-07-22T06:30:18;16.20;77.70
47338;DHT22;33069;51.970;5.892;2023-07-22T06:33:05;16.20;77.40
47338;DHT22;33069;51.970;5.892;2023-07-22T06:35:51;16.30;77.50
47338;DHT22;33069;51.970;5.892;2023-07-22T06:38:37;16.30;77.00
47338;DHT22;33069;51.970;5.892;2023-07-22T06:41:23;16.30;77.30
47338;DHT22;33069;51.970;5.892;2023-07-22T06:44:10;16.30;77.00
47338;DHT22;33069;51.970;5.892;2023-07-22T06:46:56;16.40;76.50
47338;DHT22;33069;51.970;5.892;2023-07-22T06:49:42;16.40;76.70
47338;DHT22;33069;51.970;5.892;2023-07-22T06:52:28;16.60;76.60
47338;DHT22;33069;51.970;5.892;2023-07-22T06:55:14;16.90;75.80
47338;DHT22;33069;51.970;5.892;2023-07-22T06:58:00;16.90;74.80
47338;DHT22;33069;51.970;5.892;2023-07-22T07:00:46;17.00;75.50
47338;DHT22;33069;51.970;5.892;2023-07-22T07:03:32;17.20;75.70
47338;DHT22;33069;51.970;5.892;2023-07-22T07:06:18;17.20;74.80
47338;DHT22;33069;51.970;5.892;2023-07-22T07:09:04;17.10;74.70
47338;DHT22;33069;51.970;5.892;2023-07-22T07:11:51;17.00;75.30
47338;DHT22;33069;51.970;5.892;2023-07-22T07:14:37;17.20;75.10
47338;DHT22;33069;51.970;5.892;2023-07-22T07:17:23;17.40;74.70
47338;DHT22;33069;51.970;5.892;2023-07-22T07:20:09;17.30;74.30
47338;DHT22;33069;51.970;5.892;2023-07-22T07:22:55;17.40;75.00
47338;DHT22;33069;51.970;5.892;2023-07-22T07:25:41;17.40;73.80
47338;DHT22;33069;51.970;5.892;2023-07-22T07:28:28;17.30;74.50
47338;DHT22;33069;51.970;5.892;2023-07-22T07:31:14;17.50;73.80
47338;DHT22;33069;51.970;5.892;2023-07-22T07:34:00;17.50;73.90
47338;DHT22;33069;51.970;5.892;2023-07-22T07:36:46;17.70;73.20
47338;DHT22;33069;51.970;5.892;2023-07-22T07:39:34;17.50;73.50
47338;DHT22;33069;51.970;5.892;2023-07-22T07:42:20;17.70;73.80
47338;DHT22;33069;51.970;5.892;2023-07-22T07:45:07;17.70;73.10
47338;DHT22;33069;51.970;5.892;2023-07-22T07:47:53;17.80;73.10
47338;DHT22;33069;51.970;5.892;2023-07-22T07:50:39;17.70;72.00
47338;DHT22;33069;51.970;5.892;2023-07-22T07:53:25;18.10;71.60
47338;DHT22;33069;51.970;5.892;2023-07-22T07:56:11;18.40;70.20
47338;DHT22;33069;51.970;5.892;2023-07-22T07:58:57;18.70;69.40
47338;DHT22;33069;51.970;5.892;2023-07-22T08:01:43;18.80;68.90
47338;DHT22;33069;51.970;5.892;2023-07-22T08:04:29;19.30;69.30
47338;DHT22;33069;51.970;5.892;2023-07-22T08:07:16;19.20;66.70
47338;DHT22;33069;51.970;5.892;2023-07-22T08:10:02;19.10;66.70
47338;DHT22;33069;51.970;5.892;2023-07-22T08:12:49;19.30;66.30
47338;DHT22;33069;51.970;5.892;2023-07-22T08:15:36;19.40;67.10
47338;DHT22;33069;51.970;5.892;2023-07-22T08:18:22;19.50;66.80
47338;DHT22;33069;51.970;5.892;2023-07-22T08:21:09;19.30;64.50
47338;DHT22;33069;51.970;5.892;2023-07-22T08:23:55;19.50;63.80
47338;DHT22;33069;51.970;5.892;2023-07-22T08:26:42;19.50;63.70
47338;DHT22;33069;51.970;5.892;2023-07-22T08:29:28;19.50;64.10
47338;DHT22;33069;51.970;5.892;2023-07-22T08:32:14;19.40;65.30
47338;DHT22;33069;51.970;5.892;2023-07-22T08:35:00;19.40;65.10
47338;DHT22;33069;51.970;5.892;2023-07-22T08:37:46;19.40;64.90
47338;DHT22;33069;51.970;5.892;2023-07-22T08:40:34;19.30;63.90
47338;DHT22;33069;51.970;5.892;2023-07-22T08:43:22;19.40;64.30
47338;DHT22;33069;51.970;5.892;2023-07-22T08:46:09;19.60;64.90
47338;DHT22;33069;51.970;5.892;2023-07-22T08:48:56;19.80;64.80
47338;DHT22;33069;51.970;5.892;2023-07-22T08:51:45;20.20;62.90
47338;DHT22;33069;51.970;5.892;2023-07-22T08:54:32;20.20;63.50
47338;DHT22;33069;51.970;5.892;2023-07-22T08:57:19;20.40;62.70
47338;DHT22;33069;51.970;5.892;2023-07-22T09:00:06;20.40;63.90
47338;DHT22;33069;51.970;5.892;2023-07-22T09:02:52;19.90;62.70
47338;DHT22;33069;51.970;5.892;2023-07-22T09:05:39;20.20;64.10
47338;DHT22;33069;51.970;5.892;2023-07-22T09:08:26;20.10;63.40
47338;DHT22;33069;51.970;5.892;2023-07-22T09:11:12;20.30;63.30
47338;DHT22;33069;51.970;5.892;2023-07-22T09:14:00;20.30;60.40
47338;DHT22;33069;51.970;5.892;2023-07-22T09:16:47;20.00;60.70
47338;DHT22;33069;51.970;5.892;2023-07-22T09:19:33;20.30;61.20
47338;DHT22;33069;51.970;5.892;2023-07-22T09:22:25;20.20;60.30
47338;DHT22;33069;51.970;5.892;2023-07-22T09:25:19;20.10;60.70
47338;DHT22;33069;51.970;5.892;2023-07-22T09:28:05;20.10;61.60
47338;DHT22;33069;51.970;5.892;2023-07-22T09:31:01;20.00;61.60
47338;DHT22;33069;51.970;5.892;2023-07-22T09:33:48;20.10;62.90
47338;DHT22;33069;51.970;5.892;2023-07-22T09:39:37;20.10;58.60
47338;DHT22;33069;51.970;5.892;2023-07-22T09:42:24;20.50;58.60
47338;DHT22;33069;51.970;5.892;2023-07-22T09:45:11;20.40;58.20
47338;DHT22;33069;51.970;5.892;2023-07-22T09:47:58;20.30;58.30
47338;DHT22;33069;51.970;5.892;2023-07-22T09:50:44;20.30;58.20
47338;DHT22;33069;51.970;5.892;2023-07-22T09:53:30;20.60;57.30
47338;DHT22;33069;51.970;5.892;2023-07-22T09:56:16;20.80;57.70
47338;DHT22;33069;51.970;5.892;2023-07-22T09:59:04;20.70;57.80
47338;DHT22;33069;51.970;5.892;2023-07-22T10:01:53;21.00;57.50
47338;DHT22;33069;51.970;5.892;2023-07-22T10:04:39;21.00;56.50
47338;DHT22;33069;51.970;5.892;2023-07-22T10:07:26;20.80;56.50
47338;DHT22;33069;51.970;5.892;2023-07-22T10:10:15;20.80;56.30
47338;DHT22;33069;51.970;5.892;2023-07-22T10:13:02;20.70;57.80
47338;DHT22;33069;51.970;5.892;2023-07-22T10:15:49;21.30;57.60
47338;DHT22;33069;51.970;5.892;2023-07-22T10:18:35;21.10;57.30
47338;DHT22;33069;51.970;5.892;2023-07-22T10:21:24;21.10;58.00
47338;DHT22;33069;51.970;5.892;2023-07-22T10:24:11;20.80;57.40
47338;DHT22;33069;51.970;5.892;2023-07-22T10:26:57;21.00;55.90
47338;DHT22;33069;51.970;5.892;2023-07-22T10:29:45;21.10;56.30
47338;DHT22;33069;51.970;5.892;2023-07-22T10:32:49;21.10;57.50
47338;DHT22;33069;51.970;5.892;2023-07-22T10:35:41;20.90;59.00
47338;DHT22;33069;51.970;5.892;2023-07-22T10:38:31;21.20;56.70
47338;DHT22;33069;51.970;5.892;2023-07-22T10:41:17;21.60;54.80
47338;DHT22;33069;51.970;5.892;2023-07-22T10:44:06;21.20;54.60
47338;DHT22;33069;51.970;5.892;2023-07-22T10:46:57;21.00;56.20
47338;DHT22;33069;51.970;5.892;2023-07-22T10:49:48;21.10;55.40
47338;DHT22;33069;51.970;5.892;2023-07-22T10:52:42;21.40;55.50
47338;DHT22;33069;51.970;5.892;2023-07-22T10:55:29;21.40;54.20
47338;DHT22;33069;51.970;5.892;2023-07-22T10:58:15;21.40;53.60
47338;DHT22;33069;51.970;5.892;2023-07-22T11:07:30;21.30;55.40
47338;DHT22;33069;51.970;5.892;2023-07-22T11:10:18;20.50;56.20
47338;DHT22;33069;51.970;5.892;2023-07-22T11:13:04;20.60;56.00
47338;DHT22;33069;51.970;5.892;2023-07-22T11:15:51;20.50;55.80
47338;DHT22;33069;51.970;5.892;2023-07-22T11:18:40;20.30;57.90
47338;DHT22;33069;51.970;5.892;2023-07-22T11:21:26;20.10;56.20
47338;DHT22;33069;51.970;5.892;2023-07-22T11:24:13;20.30;56.90
47338;DHT22;33069;51.970;5.892;2023-07-22T11:26:59;20.10;58.30
47338;DHT22;33069;51.970;5.892;2023-07-22T11:29:45;20.30;57.20
47338;DHT22;33069;51.970;5.892;2023-07-22T11:32:32;20.20;57.60
47338;DHT22;33069;51.970;5.892;2023-07-22T11:35:18;20.20;57.80
47338;DHT22;33069;51.970;5.892;2023-07-22T11:38:05;20.00;58.00
47338;DHT22;33069;51.970;5.892;2023-07-22T11:40:51;20.00;58.20
47338;DHT22;33069;51.970;5.892;2023-07-22T11:43:38;20.00;57.60
47338;DHT22;33069;51.970;5.892;2023-07-22T11:46:24;20.00;57.20
47338;DHT22;33069;51.970;5.892;2023-07-22T11:49:10;20.20;56.80
47338;DHT22;33069;51.970;5.892;2023-07-22T11:52:02;20.40;57.80
47338;DHT22;33069;51.970;5.892;2023-07-22T11:54:48;20.40;56.10
47338;DHT22;33069;51.970;5.892;2023-07-22T11:57:34;20.20;56.80
47338;DHT22;33069;51.970;5.892;2023-07-22T12:00:20;20.30;57.10
47338;DHT22;33069;51.970;5.892;2023-07-22T12:03:06;20.20;57.50
47338;DHT22;33069;51.970;5.892;2023-07-22T12:05:52;20.10;57.20
47338;DHT22;33069;51.970;5.892;2023-07-22T12:08:46;20.10;57.40
47338;DHT22;33069;51.970;5.892;2023-07-22T12:11:33;20.20;58.20
47338;DHT22;33069;51.970;5.892;2023-07-22T12:14:19;20.50;58.60
47338;DHT22;33069;51.970;5.892;2023-07-22T12:17:08;20.90;57.00
47338;DHT22;33069;51.970;5.892;2023-07-22T12:19:55;21.30;54.90
47338;DHT22;33069;51.970;5.892;2023-07-22T12:22:41;21.50;52.90
47338;DHT22;33069;51.970;5.892;2023-07-22T12:25:28;21.30;53.10
47338;DHT22;33069;51.970;5.892;2023-07-22T12:28:15;21.50;52.80
47338;DHT22;33069;51.970;5.892;2023-07-22T12:31:01;21.10;53.60
47338;DHT22;33069;51.970;5.892;2023-07-22T12:33:47;20.80;54.80
47338;DHT22;33069;51.970;5.892;2023-07-22T12:36:33;20.80;55.50
47338;DHT22;33069;51.970;5.892;2023-07-22T12:39:19;20.80;54.90
47338;DHT22;33069;51.970;5.892;2023-07-22T12:42:05;20.50;55.10
47338;DHT22;33069;51.970;5.892;2023-07-22T12:44:51;20.30;54.70
47338;DHT22;33069;51.970;5.892;2023-07-22T12:47:37;20.20;55.10
47338;DHT22;33069;51.970;5.892;2023-07-22T12:50:23;20.00;57.00
47338;DHT22;33069;51.970;5.892;2023-07-22T12:53:09;18.80;67.00
47338;DHT22;33069;51.970;5.892;2023-07-22T12:55:55;17.80;73.10
47338;DHT22;33069;51.970;5.892;2023-07-22T12:58:41;17.40;74.80
47338;DHT22;33069;51.970;5.892;2023-07-22T13:01:27;17.30;76.50
47338;DHT22;33069;51.970;5.892;2023-07-22T13:04:13;17.30;75.90
47338;DHT22;33069;51.970;5.892;2023-07-22T13:06:59;17.50;76.30
47338;DHT22;33069;51.970;5.892;2023-07-22T13:09:47;17.70;75.90
47338;DHT22;33069;51.970;5.892;2023-07-22T13:12:36;17.80;76.20
47338;DHT22;33069;51.970;5.892;2023-07-22T13:15:22;18.10;75.70
47338;DHT22;33069;51.970;5.892;2023-07-22T13:18:08;18.50;73.40
47338;DHT22;33069;51.970;5.892;2023-07-22T13:20:54;18.70;72.30
47338;DHT22;33069;51.970;5.892;2023-07-22T13:23:40;19.20;70.60
47338;DHT22;33069;51.970;5.892;2023-07-22T13:26:25;19.30;67.00
47338;DHT22;33069;51.970;5.892;2023-07-22T13:29:11;20.10;66.80
47338;DHT22;33069;51.970;5.892;2023-07-22T13:31:57;20.30;64.60
47338;DHT22;33069;51.970;5.892;2023-07-22T13:34:43;20.10;66.90
47338;DHT22;33069;51.970;5.892;2023-07-22T13:37:29;20.30;64.10
47338;DHT22;33069;51.970;5.892;2023-07-22T13:40:15;20.20;64.20
47338;DHT22;33069;51.970;5.892;2023-07-22T13:43:02;20.40;62.70
47338;DHT22;33069;51.970;5.892;2023-07-22T13:45:48;20.00;63.00
47338;DHT22;33069;51.970;5.892;2023-07-22T13:48:34;20.40;62.70
47338;DHT22;33069;51.970;5.892;2023-07-22T13:51:20;20.40;63.40
47338;DHT22;33069;51.970;5.892;2023-07-22T13:54:06;20.20;64.30
47338;DHT22;33069;51.970;5.892;2023-07-22T13:56:52;20.10;63.00
47338;DHT22;33069;51.970;5.892;2023-07-22T13:59:38;20.00;63.50
47338;DHT22;33069;51.970;5.892;2023-07-22T14:02:24;19.60;64.00
47338;DHT22;33069;51.970;5.892;2023-07-22T14:05:10;19.60;64.90
47338;DHT22;33069;51.970;5.892;2023-07-22T14:07:56;19.50;65.70
47338;DHT22;33069;51.970;5.892;2023-07-22T14:10:42;19.50;66.90
47338;DHT22;33069;51.970;5.892;2023-07-22T14:13:28;19.60;66.90
47338;DHT22;33069;51.970;5.892;2023-07-22T14:16:13;19.60;66.60
47338;DHT22;33069;51.970;5.892;2023-07-22T14:18:59;19.50;66.50
47338;DHT22;33069;51.970;5.892;2023-07-22T14:21:45;19.40;66.70
47338;DHT22;33069;51.970;5.892;2023-07-22T14:24:31;19.40;67.40
47338;DHT22;33069;51.970;5.892;2023-07-22T14:27:18;19.50;67.30
47338;DHT22;33069;51.970;5.892;2023-07-22T14:30:04;19.50;67.10
47338;DHT22;33069;51.970;5.892;2023-07-22T14:32:51;19.30;67.40
47338;DHT22;33069;51.970;5.892;2023-07-22T14:35:37;19.40;67.80
47338;DHT22;33069;51.970;5.892;2023-07-22T14:38:23;19.30;68.20
47338;DHT22;33069;51.970;5.892;2023-07-22T14:41:09;18.90;67.90
47338;DHT22;33069;51.970;5.892;2023-07-22T14:43:56;18.80;69.20
47338;DHT22;33069;51.970;5.892;2023-07-22T14:46:43;18.70;68.50
47338;DHT22;33069;51.970;5.892;2023-07-22T14:49:29;18.70;68.70
47338;DHT22;33069;51.970;5.892;2023-07-22T14:52:15;19.30;66.90
47338;DHT22;33069;51.970;5.892;2023-07-22T14:55:01;19.50;67.10
47338;DHT22;33069;51.970;5.892;2023-07-22T14:57:47;19.50;65.90
47338;DHT22;33069;51.970;5.892;2023-07-22T15:00:33;19.40;66.90
47338;DHT22;33069;51.970;5.892;2023-07-22T15:03:19;19.20;66.80
47338;DHT22;33069;51.970;5.892;2023-07-22T15:06:05;19.60;66.00
47338;DHT22;33069;51.970;5.892;2023-07-22T15:08:52;19.70;65.40
47338;DHT22;33069;51.970;5.892;2023-07-22T15:11:38;19.70;65.80
47338;DHT22;33069;51.970;5.892;2023-07-22T15:14:24;19.40;64.80
47338;DHT22;33069;51.970;5.892;2023-07-22T15:17:10;19.30;67.10
47338;DHT22;33069;51.970;5.892;2023-07-22T15:19:56;19.50;67.00
47338;DHT22;33069;51.970;5.892;2023-07-22T15:22:42;19.90;64.00
47338;DHT22;33069;51.970;5.892;2023-07-22T15:25:28;19.80;63.30
47338;DHT22;33069;51.970;5.892;2023-07-22T15:28:14;19.70;63.20
47338;DHT22;33069;51.970;5.892;2023-07-22T15:31:00;20.10;62.20
47338;DHT22;33069;51.970;5.892;2023-07-22T15:33:46;19.70;63.30
47338;DHT22;33069;51.970;5.892;2023-07-22T15:36:32;20.00;62.60
47338;DHT22;33069;51.970;5.892;2023-07-22T15:39:18;20.00;61.70
47338;DHT22;33069;51.970;5.892;2023-07-22T15:42:04;19.60;63.00
47338;DHT22;33069;51.970;5.892;2023-07-22T15:44:50;19.30;64.10
47338;DHT22;33069;51.970;5.892;2023-07-22T15:47:37;19.40;64.60
47338;DHT22;33069;51.970;5.892;2023-07-22T15:50:23;19.40;64.70
47338;DHT22;33069;51.970;5.892;2023-07-22T15:53:08;19.30;65.40
47338;DHT22;33069;51.970;5.892;2023-07-22T15:55:54;19.10;65.50
47338;DHT22;33069;51.970;5.892;2023-07-22T15:58:40;19.20;64.90
47338;DHT22;33069;51.970;5.892;2023-07-22T16:01:27;19.10;65.10
47338;DHT22;33069;51.970;5.892;2023-07-22T16:04:14;19.00;65.20
47338;DHT22;33069;51.970;5.892;2023-07-22T16:07:00;19.00;65.20
47338;DHT22;33069;51.970;5.892;2023-07-22T16:09:46;19.20;65.40
47338;DHT22;33069;51.970;5.892;2023-07-22T16:12:32;19.20;65.30
47338;DHT22;33069;51.970;5.892;2023-07-22T16:15:18;19.20;65.50
47338;DHT22;33069;51.970;5.892;2023-07-22T16:18:04;19.10;65.50
47338;DHT22;33069;51.970;5.892;2023-07-22T16:20:50;19.10;66.30
47338;DHT22;33069;51.970;5.892;2023-07-22T16:23:36;19.20;66.10
47338;DHT22;33069;51.970;5.892;2023-07-22T16:26:22;19.50;66.00
47338;DHT22;33069;51.970;5.892;2023-07-22T16:29:08;19.50;64.80
47338;DHT22;33069;51.970;5.892;2023-07-22T16:31:54;19.50;65.00
47338;DHT22;33069;51.970;5.892;2023-07-22T16:34:40;19.40;64.80
47338;DHT22;33069;51.970;5.892;2023-07-22T16:37:26;19.40;65.40
47338;DHT22;33069;51.970;5.892;2023-07-22T16:40:12;19.30;64.30
47338;DHT22;33069;51.970;5.892;2023-07-22T16:42:58;19.30;65.20
47338;DHT22;33069;51.970;5.892;2023-07-22T16:45:44;19.20;65.50
47338;DHT22;33069;51.970;5.892;2023-07-22T16:48:30;19.40;64.90
47338;DHT22;33069;51.970;5.892;2023-07-22T16:51:16;19.60;64.90
47338;DHT22;33069;51.970;5.892;2023-07-22T16:54:02;19.50;64.40
47338;DHT22;33069;51.970;5.892;2023-07-22T16:56:48;19.20;65.70
47338;DHT22;33069;51.970;5.892;2023-07-22T16:59:34;19.30;65.50
47338;DHT22;33069;51.970;5.892;2023-07-22T17:02:20;19.30;64.90
47338;DHT22;33069;51.970;5.892;2023-07-22T17:05:06;19.30;64.80
47338;DHT22;33069;51.970;5.892;2023-07-22T17:07:53;19.40;66.10
47338;DHT22;33069;51.970;5.892;2023-07-22T17:10:39;19.40;65.60
47338;DHT22;33069;51.970;5.892;2023-07-22T17:13:24;19.50;65.30
47338;DHT22;33069;51.970;5.892;2023-07-22T17:16:10;19.40;65.80
47338;DHT22;33069;51.970;5.892;2023-07-22T17:18:56;19.40;64.60
47338;DHT22;33069;51.970;5.892;2023-07-22T17:21:42;19.30;64.80
47338;DHT22;33069;51.970;5.892;2023-07-22T17:24:28;19.30;65.40
47338;DHT22;33069;51.970;5.892;2023-07-22T17:27:14;19.30;66.70
47338;DHT22;33069;51.970;5.892;2023-07-22T17:30:00;19.20;66.10
47338;DHT22;33069;51.970;5.892;2023-07-22T17:32:46;19.30;67.00
47338;DHT22;33069;51.970;5.892;2023-07-22T17:35:34;19.10;66.90
47338;DHT22;33069;51.970;5.892;2023-07-22T17:38:22;19.30;66.00
47338;DHT22;33069;51.970;5.892;2023-07-22T17:41:10;19.40;65.60